Time;durP1;ratioP1;P1;durP2;ratioP2;P2;SDS_P1;SDS_P2;PMS_P1;PMS_P2;Temp;Humidity;BMP_temperature;BMP_pressure;BME280_temperature;BME280_humidity;BME280_pressure;Samples;Min_cycle;Max_cycle;Signal;HPM_P1;HPM_P2
2023/07/16 00:01:55;;;;;;;4.07;2.13;;;;;;;;;;5032302;28;20524;-68
2023/07/16 00:04:21;;;;;;;4.97;2.05;;;;;;;;;;5030913;28;20040;-68
2023/07/16 00:06:47;;;;;;;3.03;1.80;;;;;;;;;;5036036;28;20061;-68
2023/07/16 00:09:13;;;;;;;3.65;1.77;;;;;;;;;;5038833;28;20112;-68
2023/07/16 00:11:39;;;;;;;5.95;2.33;;;;;;;;;;5033991;28;20053;-68
2023/07/16 00:14:05;;;;;;;2.83;2.10;;;;;;;;;;5032344;28;20305;-68
2023/07/16 00:16:31;;;;;;;1.90;1.52;;;;;;;;;;5033001;28;20037;-68
2023/07/16 00:18:57;;;;;;;3.88;1.65;;;;;;;;;;5032461;28;20045;-68
2023/07/16 00:21:24;;;;;;;2.53;1.60;;;;;;;;;;5033236;28;20108;-68
2023/07/16 00:23:50;;;;;;;2.90;1.35;;;;;;;;;;5016821;28;20440;-69
2023/07/16 00:26:16;;;;;;;3.05;1.85;;;;;;;;;;5034318;28;20079;-68
2023/07/16 00:28:42;;;;;;;2.53;1.65;;;;;;;;;;5036370;28;20053;-68
2023/07/16 00:31:08;;;;;;;4.28;2.22;;;;;;;;;;5030341;28;20046;-68
2023/07/16 00:33:34;;;;;;;3.97;2.10;;;;;;;;;;5031243;28;20520;-68
2023/07/16 00:36:00;;;;;;;2.55;2.00;;;;;;;;;;5035817;28;20084;-68
2023/07/16 00:38:26;;;;;;;3.75;2.33;;;;;;;;;;5035383;28;20068;-68
2023/07/16 00:40:52;;;;;;;3.65;2.10;;;;;;;;;;5038509;28;20512;-68
2023/07/16 00:43:18;;;;;;;6.45;2.17;;;;;;;;;;5032229;28;20041;-68
2023/07/16 00:45:46;;;;;;;5.43;2.42;;;;;;;;;;5031934;28;20474;-68
2023/07/16 00:48:12;;;;;;;4.65;2.63;;;;;;;;;;5035068;28;20548;-68
2023/07/16 00:50:39;;;;;;;4.88;2.55;;;;;;;;;;5034514;28;20038;-68
2023/07/16 00:53:06;;;;;;;6.25;2.50;;;;;;;;;;5035762;28;20059;-68
2023/07/16 00:55:32;;;;;;;4.00;1.90;;;;;;;;;;5038113;28;20053;-68
2023/07/16 00:58:05;;;;;;;2.83;2.22;;;;;;;;;;5036398;28;20087;-68
2023/07/16 01:00:31;;;;;;;4.10;2.35;;;;;;;;;;5037417;28;20041;-68
2023/07/16 01:02:57;;;;;;;5.10;2.22;;;;;;;;;;5036557;28;20044;-68
2023/07/16 01:05:25;;;;;;;5.20;2.83;;;;;;;;;;5036599;28;20049;-68
2023/07/16 01:07:56;;;;;;;2.45;2.25;;;;;;;;;;5034470;28;20490;-68
2023/07/16 01:10:23;;;;;;;3.45;2.40;;;;;;;;;;5035306;28;20041;-68
2023/07/16 01:12:51;;;;;;;3.60;2.13;;;;;;;;;;5035640;28;20529;-68
2023/07/16 01:15:17;;;;;;;6.05;2.92;;;;;;;;;;5034403;28;20076;-68
2023/07/16 01:17:43;;;;;;;5.45;2.92;;;;;;;;;;5036919;28;20079;-68
2023/07/16 01:20:11;;;;;;;8.23;2.80;;;;;;;;;;5036313;28;20060;-68
2023/07/16 01:22:37;;;;;;;4.88;2.50;;;;;;;;;;5036589;28;20036;-68
2023/07/16 01:25:21;;;;;;;7.32;3.05;;;;;;;;;;5034169;28;20578;-68
2023/07/16 01:28:02;;;;;;;6.28;3.20;;;;;;;;;;5035913;28;20057;-67
2023/07/16 01:30:29;;;;;;;7.57;2.97;;;;;;;;;;5038792;28;20102;-67
2023/07/16 01:32:56;;;;;;;6.43;2.95;;;;;;;;;;5034973;28;20044;-67
2023/07/16 01:35:22;;;;;;;5.15;2.40;;;;;;;;;;5035763;28;20068;-67
2023/07/16 01:37:48;;;;;;;3.70;2.78;;;;;;;;;;5038759;28;20098;-67
2023/07/16 01:40:14;;;;;;;3.92;2.78;;;;;;;;;;5034463;28;20050;-67
2023/07/16 01:42:41;;;;;;;6.15;2.53;;;;;;;;;;5038101;28;20106;-68
2023/07/16 01:45:07;;;;;;;5.85;2.70;;;;;;;;;;5039931;28;20037;-68
2023/07/16 01:47:39;;;;;;;7.47;2.75;;;;;;;;;;5037383;28;20041;-68
2023/07/16 01:50:06;;;;;;;8.93;3.85;;;;;;;;;;5033853;28;20037;-68
2023/07/16 01:52:32;;;;;;;4.70;2.50;;;;;;;;;;5039396;28;20746;-68
2023/07/16 01:54:58;;;;;;;4.28;2.35;;;;;;;;;;5039328;28;20059;-68
2023/07/16 01:57:24;;;;;;;3.70;2.17;;;;;;;;;;5038491;28;20116;-68
2023/07/16 01:59:50;;;;;;;7.32;2.60;;;;;;;;;;5036492;28;20128;-68
2023/07/16 02:02:16;;;;;;;6.68;2.38;;;;;;;;;;5038503;28;20608;-68
2023/07/16 02:04:42;;;;;;;4.53;2.50;;;;;;;;;;5041812;28;20621;-68
2023/07/16 02:07:08;;;;;;;1.77;1.50;;;;;;;;;;5038958;28;20048;-67
2023/07/16 02:09:35;;;;;;;4.93;2.38;;;;;;;;;;5038878;28;20044;-67
2023/07/16 02:12:01;;;;;;;3.15;2.15;;;;;;;;;;5039359;28;20064;-68
2023/07/16 02:14:27;;;;;;;3.97;2.03;;;;;;;;;;5037842;28;20067;-68
2023/07/16 02:16:53;;;;;;;5.47;2.83;;;;;;;;;;5035406;28;20071;-68
2023/07/16 02:19:20;;;;;;;4.43;2.75;;;;;;;;;;5040572;28;20108;-67
2023/07/16 02:21:46;;;;;;;4.45;2.78;;;;;;;;;;5038633;28;20056;-67
2023/07/16 02:24:12;;;;;;;5.20;2.25;;;;;;;;;;5036958;28;20045;-67
2023/07/16 02:26:39;;;;;;;4.90;2.20;;;;;;;;;;5041357;28;20424;-68
2023/07/16 02:29:08;;;;;;;5.68;2.80;;;;;;;;;;5035378;28;20073;-68
2023/07/16 02:31:34;;;;;;;6.32;2.40;;;;;;;;;;5039181;28;20041;-68
2023/07/16 02:34:00;;;;;;;4.00;2.53;;;;;;;;;;5041123;28;20033;-67
2023/07/16 02:36:26;;;;;;;5.05;2.70;;;;;;;;;;5038816;28;20386;-67
2023/07/16 02:38:52;;;;;;;3.90;2.90;;;;;;;;;;5039405;28;20049;-67
2023/07/16 02:41:18;;;;;;;5.38;3.05;;;;;;;;;;5038235;28;20045;-68
2023/07/16 02:43:46;;;;;;;6.43;2.95;;;;;;;;;;5039940;28;20053;-68
2023/07/16 02:46:12;;;;;;;3.40;2.55;;;;;;;;;;5040282;28;20076;-67
2023/07/16 02:48:38;;;;;;;6.20;2.67;;;;;;;;;;5040217;28;20073;-67
2023/07/16 02:51:04;;;;;;;6.95;2.75;;;;;;;;;;5037338;28;20574;-67
2023/07/16 02:53:30;;;;;;;4.28;3.13;;;;;;;;;;5039169;28;20039;-67
2023/07/16 02:55:56;;;;;;;6.03;3.15;;;;;;;;;;5041210;28;20040;-68
2023/07/16 02:58:22;;;;;;;10.20;3.30;;;;;;;;;;5039610;28;20461;-68
2023/07/16 03:00:48;;;;;;;4.85;3.03;;;;;;;;;;5039397;28;20043;-67
2023/07/16 03:03:14;;;;;;;5.38;3.05;;;;;;;;;;5038598;28;20033;-67
2023/07/16 03:05:40;;;;;;;6.25;3.58;;;;;;;;;;5039494;28;20672;-67
2023/07/16 03:08:06;;;;;;;6.47;3.60;;;;;;;;;;5039842;28;20076;-67
2023/07/16 03:10:32;;;;;;;8.23;3.65;;;;;;;;;;5039121;28;20040;-67
2023/07/16 03:12:58;;;;;;;7.78;3.28;;;;;;;;;;5038657;28;20514;-67
2023/07/16 03:15:24;;;;;;;6.55;3.88;;;;;;;;;;5039327;28;20041;-67
2023/07/16 03:17:50;;;;;;;5.85;3.40;;;;;;;;;;5038770;28;20049;-67
2023/07/16 03:20:16;;;;;;;5.80;3.90;;;;;;;;;;5037456;28;20965;-67
2023/07/16 03:22:42;;;;;;;3.70;3.40;;;;;;;;;;5039153;28;20102;-67
2023/07/16 03:25:08;;;;;;;5.00;3.05;;;;;;;;;;5039335;28;20033;-67
2023/07/16 03:27:34;;;;;;;9.15;4.03;;;;;;;;;;5036893;28;20053;-67
2023/07/16 03:30:00;;;;;;;7.68;3.70;;;;;;;;;;5038287;28;20134;-67
2023/07/16 03:32:26;;;;;;;7.63;3.50;;;;;;;;;;5052506;28;20049;-67
2023/07/16 03:34:52;;;;;;;4.65;3.72;;;;;;;;;;5035201;28;20072;-67
2023/07/16 03:37:18;;;;;;;4.55;3.42;;;;;;;;;;5037094;28;20069;-67
2023/07/16 03:39:44;;;;;;;8.55;3.67;;;;;;;;;;5038625;28;20068;-67
2023/07/16 03:42:10;;;;;;;4.57;3.55;;;;;;;;;;5034667;28;20556;-67
2023/07/16 03:44:36;;;;;;;4.97;3.22;;;;;;;;;;5038156;28;20036;-67
2023/07/16 03:47:02;;;;;;;12.73;4.32;;;;;;;;;;5038478;28;20047;-67
2023/07/16 03:49:28;;;;;;;7.18;4.40;;;;;;;;;;5034077;28;20091;-67
2023/07/16 03:51:54;;;;;;;11.00;4.85;;;;;;;;;;5040351;28;20040;-67
2023/07/16 03:54:20;;;;;;;11.35;4.60;;;;;;;;;;5033241;28;20047;-67
2023/07/16 03:56:46;;;;;;;8.75;3.92;;;;;;;;;;5039615;28;20041;-67
2023/07/16 03:59:12;;;;;;;6.28;4.50;;;;;;;;;;5034494;28;20424;-67
2023/07/16 04:01:38;;;;;;;6.90;4.40;;;;;;;;;;5037462;28;20037;-67
2023/07/16 04:04:04;;;;;;;7.25;4.10;;;;;;;;;;5038755;28;20094;-67
2023/07/16 04:06:30;;;;;;;8.18;4.10;;;;;;;;;;5036001;28;20030;-67
2023/07/16 04:08:56;;;;;;;5.03;3.88;;;;;;;;;;5038164;28;20542;-67
2023/07/16 04:11:22;;;;;;;6.55;4.55;;;;;;;;;;5036615;28;20057;-68
2023/07/16 04:13:48;;;;;;;6.65;4.68;;;;;;;;;;5039234;28;20133;-67
2023/07/16 04:16:14;;;;;;;7.07;4.47;;;;;;;;;;5033003;28;20131;-67
2023/07/16 04:18:40;;;;;;;6.63;4.95;;;;;;;;;;5038848;28;20052;-67
2023/07/16 04:21:06;;;;;;;9.85;5.10;;;;;;;;;;5039953;28;20041;-67
2023/07/16 04:23:33;;;;;;;8.90;5.20;;;;;;;;;;5037343;28;20400;-67
2023/07/16 04:25:59;;;;;;;10.50;4.50;;;;;;;;;;5034648;28;20048;-67
2023/07/16 04:28:25;;;;;;;7.35;4.57;;;;;;;;;;5037460;28;20128;-67
2023/07/16 04:30:51;;;;;;;8.20;4.70;;;;;;;;;;5035663;28;20044;-67
2023/07/16 04:33:18;;;;;;;10.60;4.72;;;;;;;;;;5036925;28;20044;-67
2023/07/16 04:35:45;;;;;;;7.53;4.55;;;;;;;;;;5037677;28;20044;-67
2023/07/16 04:38:10;;;;;;;5.40;3.97;;;;;;;;;;5036390;28;20045;-67
2023/07/16 04:40:36;;;;;;;8.38;4.97;;;;;;;;;;5039150;28;20099;-67
2023/07/16 04:43:03;;;;;;;8.20;5.03;;;;;;;;;;5037069;28;20432;-67
2023/07/16 04:45:29;;;;;;;9.27;6.03;;;;;;;;;;5036802;28;20038;-68
2023/07/16 04:47:55;;;;;;;8.13;5.03;;;;;;;;;;5038089;28;20389;-68
2023/07/16 04:50:21;;;;;;;7.05;4.60;;;;;;;;;;5037434;28;20032;-68
2023/07/16 04:52:47;;;;;;;9.40;5.13;;;;;;;;;;5018728;28;20045;-68
2023/07/16 04:55:13;;;;;;;9.57;5.25;;;;;;;;;;5037876;28;20048;-68
2023/07/16 04:57:39;;;;;;;10.43;5.40;;;;;;;;;;5037032;28;20493;-68
2023/07/16 05:00:05;;;;;;;8.00;5.20;;;;;;;;;;5036546;28;20060;-68
2023/07/16 05:02:32;;;;;;;10.68;4.93;;;;;;;;;;5035644;28;20095;-68
2023/07/16 05:04:58;;;;;;;5.78;4.13;;;;;;;;;;5034833;28;20043;-68
2023/07/16 05:07:24;;;;;;;12.43;5.63;;;;;;;;;;5035718;28;20398;-68
2023/07/16 05:09:50;;;;;;;11.57;5.47;;;;;;;;;;5031353;28;20049;-68
2023/07/16 05:12:16;;;;;;;7.43;4.68;;;;;;;;;;5032151;28;20052;-68
2023/07/16 05:14:46;;;;;;;7.22;4.60;;;;;;;;;;5037249;28;20049;-68
2023/07/16 05:17:12;;;;;;;9.98;4.97;;;;;;;;;;5037120;28;20048;-68
2023/07/16 05:19:38;;;;;;;7.97;5.40;;;;;;;;;;5034361;28;20045;-68
2023/07/16 05:22:04;;;;;;;9.40;6.03;;;;;;;;;;5036874;28;20044;-68
2023/07/16 05:24:31;;;;;;;7.75;5.47;;;;;;;;;;5036095;28;20049;-68
2023/07/16 05:26:57;;;;;;;8.30;5.45;;;;;;;;;;5037297;28;20059;-68
2023/07/16 05:29:24;;;;;;;6.60;4.47;;;;;;;;;;5033620;28;20041;-68
2023/07/16 05:31:50;;;;;;;8.20;5.07;;;;;;;;;;5033741;28;20048;-68
2023/07/16 05:34:16;;;;;;;5.53;4.00;;;;;;;;;;5034890;28;20144;-68
2023/07/16 05:36:44;;;;;;;7.88;4.80;;;;;;;;;;5038783;28;20041;-68
2023/07/16 05:39:12;;;;;;;8.70;5.25;;;;;;;;;;5036591;28;20045;-68
2023/07/16 05:41:39;;;;;;;8.07;4.28;;;;;;;;;;5036144;28;20046;-68
2023/07/16 05:44:05;;;;;;;6.70;4.18;;;;;;;;;;5035276;28;20045;-68
2023/07/16 05:46:31;;;;;;;7.07;4.22;;;;;;;;;;5036736;28;20035;-68
2023/07/16 05:48:57;;;;;;;8.85;5.20;;;;;;;;;;5035575;28;20095;-68
2023/07/16 05:51:23;;;;;;;4.78;3.65;;;;;;;;;;5033432;28;20138;-67
2023/07/16 05:53:49;;;;;;;5.65;3.58;;;;;;;;;;5036145;28;20112;-67
2023/07/16 05:56:15;;;;;;;6.78;3.88;;;;;;;;;;5032963;28;20053;-68
2023/07/16 05:58:41;;;;;;;5.28;3.38;;;;;;;;;;5036294;28;20041;-68
2023/07/16 06:01:08;;;;;;;11.30;4.68;;;;;;;;;;5035811;28;20623;-68
2023/07/16 06:03:34;;;;;;;6.30;4.05;;;;;;;;;;5037586;28;20042;-68
2023/07/16 06:06:00;;;;;;;7.78;4.40;;;;;;;;;;5034370;28;20099;-68
2023/07/16 06:08:26;;;;;;;6.30;4.13;;;;;;;;;;5037012;28;20041;-67
2023/07/16 06:10:53;;;;;;;12.43;4.53;;;;;;;;;;5034515;28;20132;-67
2023/07/16 06:13:19;;;;;;;11.35;3.80;;;;;;;;;;5036453;28;20046;-68
2023/07/16 06:15:45;;;;;;;5.07;3.20;;;;;;;;;;5035216;28;20037;-68
2023/07/16 06:18:11;;;;;;;3.75;3.35;;;;;;;;;;5033478;28;20049;-68
2023/07/16 06:20:37;;;;;;;6.85;3.78;;;;;;;;;;5047789;28;20548;-68
2023/07/16 06:23:03;;;;;;;6.30;3.70;;;;;;;;;;5035510;28;20105;-68
2023/07/16 06:25:29;;;;;;;9.88;4.40;;;;;;;;;;5035417;28;20492;-67
2023/07/16 06:27:55;;;;;;;8.82;4.18;;;;;;;;;;5030782;28;20053;-67
2023/07/16 06:30:21;;;;;;;7.50;3.95;;;;;;;;;;5031214;28;20051;-67
2023/07/16 06:32:48;;;;;;;6.22;3.90;;;;;;;;;;5038002;28;20087;-67
2023/07/16 06:35:14;;;;;;;6.30;4.00;;;;;;;;;;5034758;28;20041;-67
2023/07/16 06:37:40;;;;;;;11.93;4.75;;;;;;;;;;5038736;28;20037;-67
2023/07/16 06:40:07;;;;;;;4.47;3.60;;;;;;;;;;5042019;28;20037;-67
2023/07/16 06:42:33;;;;;;;3.92;3.20;;;;;;;;;;5035716;28;20118;-67
2023/07/16 06:44:59;;;;;;;4.95;3.08;;;;;;;;;;5037913;28;20134;-68
2023/07/16 06:47:25;;;;;;;2.58;2.38;;;;;;;;;;5038509;28;20513;-68
2023/07/16 06:49:51;;;;;;;7.43;4.20;;;;;;;;;;5046603;28;20106;-67
2023/07/16 06:52:27;;;;;;;8.25;3.72;;;;;;;;;;5046703;28;20041;-67
2023/07/16 06:54:53;;;;;;;6.78;4.07;;;;;;;;;;5046843;28;20045;-67
2023/07/16 06:57:19;;;;;;;4.25;3.22;;;;;;;;;;5045954;28;20162;-67
2023/07/16 06:59:45;;;;;;;8.07;4.43;;;;;;;;;;5048508;28;20041;-67
2023/07/16 07:02:12;;;;;;;5.70;4.55;;;;;;;;;;5046383;28;20045;-68
2023/07/16 07:04:38;;;;;;;6.68;4.43;;;;;;;;;;5046133;28;20060;-68
2023/07/16 07:07:04;;;;;;;6.40;3.78;;;;;;;;;;5048021;28;20394;-68
2023/07/16 07:09:30;;;;;;;5.57;3.90;;;;;;;;;;5046344;28;20094;-67
2023/07/16 07:11:56;;;;;;;7.15;4.90;;;;;;;;;;5047766;28;20130;-67
2023/07/16 07:14:22;;;;;;;9.20;4.85;;;;;;;;;;5047623;28;20489;-67
2023/07/16 07:16:48;;;;;;;9.80;4.93;;;;;;;;;;5043230;28;20048;-67
2023/07/16 07:19:14;;;;;;;10.75;4.47;;;;;;;;;;5030155;28;20049;-67
2023/07/16 07:21:40;;;;;;;8.70;5.20;;;;;;;;;;5044261;28;20037;-67
2023/07/16 07:24:06;;;;;;;8.05;4.85;;;;;;;;;;5042372;28;20452;-67
2023/07/16 07:26:32;;;;;;;6.80;3.90;;;;;;;;;;5037528;28;20045;-67
2023/07/16 07:28:58;;;;;;;11.52;5.22;;;;;;;;;;5032251;28;20081;-68
2023/07/16 07:31:24;;;;;;;9.32;5.25;;;;;;;;;;5044798;28;20149;-68
2023/07/16 07:33:50;;;;;;;7.90;4.93;;;;;;;;;;5043769;28;20124;-68
2023/07/16 07:36:16;;;;;;;6.57;3.95;;;;;;;;;;5040872;28;20074;-68
2023/07/16 07:38:42;;;;;;;7.60;4.85;;;;;;;;;;5047507;28;20047;-68
2023/07/16 07:41:08;;;;;;;7.07;4.82;;;;;;;;;;5043882;28;20045;-68
2023/07/16 07:43:34;;;;;;;6.85;4.40;;;;;;;;;;5044374;28;20047;-68
2023/07/16 07:46:00;;;;;;;4.90;4.40;;;;;;;;;;5038730;28;20530;-68
2023/07/16 07:48:26;;;;;;;4.80;4.35;;;;;;;;;;5031886;28;20045;-68
2023/07/16 07:50:53;;;;;;;5.22;4.40;;;;;;;;;;5044653;28;20083;-68
2023/07/16 07:53:19;;;;;;;7.88;5.13;;;;;;;;;;5047053;28;20041;-68
2023/07/16 07:55:45;;;;;;;5.65;4.50;;;;;;;;;;5046435;28;20045;-68
2023/07/16 07:58:11;;;;;;;8.43;5.28;;;;;;;;;;5032016;28;20076;-70
2023/07/16 08:00:37;;;;;;;9.25;5.25;;;;;;;;;;5026586;28;20049;-65
2023/07/16 08:03:03;;;;;;;6.53;4.78;;;;;;;;;;5027132;28;20037;-62
2023/07/16 08:05:29;;;;;;;7.60;4.22;;;;;;;;;;5037563;28;20071;-64
2023/07/16 08:07:55;;;;;;;6.22;4.40;;;;;;;;;;5047002;28;20041;-70
2023/07/16 08:10:22;;;;;;;8.88;4.50;;;;;;;;;;5045516;28;20678;-69
2023/07/16 08:12:48;;;;;;;6.35;4.40;;;;;;;;;;5045756;28;20057;-70
2023/07/16 08:15:15;;;;;;;8.43;4.55;;;;;;;;;;5038146;28;20111;-69
2023/07/16 08:17:44;;;;;;;6.95;4.53;;;;;;;;;;5040239;28;20045;-67
2023/07/16 08:20:10;;;;;;;7.13;4.43;;;;;;;;;;5026161;28;20120;-67
2023/07/16 08:22:36;;;;;;;11.55;5.68;;;;;;;;;;5037295;28;20456;-67
2023/07/16 08:25:03;;;;;;;4.97;3.85;;;;;;;;;;5041113;28;20068;-67
2023/07/16 08:27:30;;;;;;;11.00;5.13;;;;;;;;;;5041201;28;20044;-67
2023/07/16 08:29:56;;;;;;;8.82;5.15;;;;;;;;;;5041387;28;20044;-67
2023/07/16 08:32:22;;;;;;;6.47;4.20;;;;;;;;;;5041199;28;20413;-67
2023/07/16 08:34:48;;;;;;;5.72;4.43;;;;;;;;;;5040838;28;20048;-67
2023/07/16 08:37:15;;;;;;;6.95;4.75;;;;;;;;;;5028365;28;20478;-67
2023/07/16 08:39:41;;;;;;;5.07;4.53;;;;;;;;;;5042875;28;20498;-67
2023/07/16 08:42:09;;;;;;;7.40;4.40;;;;;;;;;;5045361;28;20087;-67
2023/07/16 08:44:36;;;;;;;6.53;4.45;;;;;;;;;;5040155;28;20056;-67
2023/07/16 08:47:02;;;;;;;10.98;5.30;;;;;;;;;;5041470;28;20422;-67
2023/07/16 08:49:30;;;;;;;7.70;5.00;;;;;;;;;;5042359;28;20108;-69
2023/07/16 08:51:56;;;;;;;8.02;4.80;;;;;;;;;;5035866;28;20037;-69
2023/07/16 08:54:22;;;;;;;7.35;5.00;;;;;;;;;;5043676;28;20525;-67
2023/07/16 08:56:49;;;;;;;5.38;4.07;;;;;;;;;;5031379;28;20517;-67
2023/07/16 08:59:15;;;;;;;9.10;5.25;;;;;;;;;;5034913;28;20072;-67
2023/07/16 09:01:41;;;;;;;8.15;5.13;;;;;;;;;;5032096;28;20494;-67
2023/07/16 09:04:08;;;;;;;13.05;5.80;;;;;;;;;;5039679;28;20051;-67
2023/07/16 09:06:34;;;;;;;6.30;4.50;;;;;;;;;;5032698;28;20092;-67
2023/07/16 09:09:00;;;;;;;8.85;5.00;;;;;;;;;;5035119;28;20402;-69
2023/07/16 09:11:27;;;;;;;7.28;5.13;;;;;;;;;;5042826;28;20064;-69
2023/07/16 09:13:53;;;;;;;7.80;4.70;;;;;;;;;;5034894;28;20148;-69
2023/07/16 09:16:20;;;;;;;6.97;4.78;;;;;;;;;;5034511;28;20045;-68
2023/07/16 09:18:47;;;;;;;12.55;5.03;;;;;;;;;;5043213;28;20076;-68
2023/07/16 09:21:13;;;;;;;7.72;5.03;;;;;;;;;;5008617;28;20053;-68
2023/07/16 09:23:41;;;;;;;10.45;4.93;;;;;;;;;;5023879;28;20155;-68
2023/07/16 09:26:07;;;;;;;5.95;4.07;;;;;;;;;;5022728;28;20105;-68
2023/07/16 09:28:34;;;;;;;7.38;4.25;;;;;;;;;;5034039;28;20124;-68
2023/07/16 09:31:07;;;;;;;6.80;3.83;;;;;;;;;;5045387;28;20128;-67
2023/07/16 09:33:33;;;;;;;9.35;5.32;;;;;;;;;;5039707;28;20041;-68
2023/07/16 09:35:59;;;;;;;7.60;5.18;;;;;;;;;;5038337;28;20037;-68
2023/07/16 09:38:27;;;;;;;8.05;4.80;;;;;;;;;;5042257;28;20033;-68
2023/07/16 09:40:54;;;;;;;7.78;4.65;;;;;;;;;;5039626;28;20231;-68
2023/07/16 09:43:21;;;;;;;5.82;4.75;;;;;;;;;;5032664;28;20056;-68
2023/07/16 09:45:47;;;;;;;6.90;4.85;;;;;;;;;;5040587;28;20060;-68
2023/07/16 09:48:14;;;;;;;6.38;4.65;;;;;;;;;;5038963;28;20253;-68
2023/07/16 09:50:45;;;;;;;7.38;4.13;;;;;;;;;;5034969;28;20045;-68
2023/07/16 09:53:12;;;;;;;7.75;4.65;;;;;;;;;;5034492;28;20119;-68
2023/07/16 09:55:38;;;;;;;9.07;4.63;;;;;;;;;;5042437;28;20037;-68
2023/07/16 09:58:07;;;;;;;8.25;4.45;;;;;;;;;;5033950;28;20049;-68
2023/07/16 10:00:34;;;;;;;7.28;4.57;;;;;;;;;;5039760;28;20489;-68
2023/07/16 10:03:00;;;;;;;9.75;5.20;;;;;;;;;;5043807;28;20485;-68
2023/07/16 10:05:27;;;;;;;6.88;4.45;;;;;;;;;;5048700;28;20033;-68
2023/07/16 10:08:00;;;;;;;6.75;3.80;;;;;;;;;;5047843;28;20045;-68
2023/07/16 10:11:01;;;;;;;5.75;4.47;;;;;;;;;;5047012;28;20040;-68
2023/07/16 10:13:28;;;;;;;9.03;4.60;;;;;;;;;;4986202;28;20074;-68
2023/07/16 10:15:54;;;;;;;10.82;4.30;;;;;;;;;;5030019;28;20057;-68
2023/07/16 10:18:39;;;;;;;8.18;4.40;;;;;;;;;;5042406;28;20459;-68
2023/07/16 10:21:06;;;;;;;8.38;4.47;;;;;;;;;;5030841;28;20511;-68
2023/07/16 10:23:39;;;;;;;6.75;4.25;;;;;;;;;;5043291;28;20072;-68
2023/07/16 10:26:06;;;;;;;6.05;4.10;;;;;;;;;;5038770;28;20071;-68
2023/07/16 10:28:35;;;;;;;11.02;4.07;;;;;;;;;;5042892;28;20049;-68
2023/07/16 10:31:01;;;;;;;5.20;3.80;;;;;;;;;;5041874;28;20490;-68
2023/07/16 10:33:27;;;;;;;7.15;4.43;;;;;;;;;;5037140;28;20467;-68
2023/07/16 10:35:53;;;;;;;8.70;4.72;;;;;;;;;;5038427;28;20049;-68
2023/07/16 10:38:19;;;;;;;9.10;4.47;;;;;;;;;;5044063;28;20045;-68
2023/07/16 10:40:45;;;;;;;4.95;4.10;;;;;;;;;;5041710;28;20128;-68
2023/07/16 10:43:12;;;;;;;5.47;4.28;;;;;;;;;;5040630;28;20397;-68
2023/07/16 10:45:39;;;;;;;6.00;4.22;;;;;;;;;;5035208;28;20488;-68
2023/07/16 10:48:05;;;;;;;8.20;4.35;;;;;;;;;;5040840;28;20401;-68
2023/07/16 10:50:34;;;;;;;9.20;5.00;;;;;;;;;;5036324;28;20073;-68
2023/07/16 10:53:01;;;;;;;7.80;4.90;;;;;;;;;;5042671;28;20430;-68
2023/07/16 10:55:28;;;;;;;5.85;4.03;;;;;;;;;;5037500;28;20033;-68
2023/07/16 10:57:54;;;;;;;5.32;4.20;;;;;;;;;;5042246;28;20048;-68
2023/07/16 11:00:21;;;;;;;7.07;4.68;;;;;;;;;;5045119;28;20036;-69
2023/07/16 11:02:47;;;;;;;6.88;4.28;;;;;;;;;;5039523;28;20076;-69
2023/07/16 11:05:14;;;;;;;5.45;3.60;;;;;;;;;;5040484;28;20116;-69
2023/07/16 11:07:44;;;;;;;4.80;4.07;;;;;;;;;;5033658;28;20104;-68
2023/07/16 11:10:11;;;;;;;5.65;4.15;;;;;;;;;;5042083;28;20064;-68
2023/07/16 11:12:37;;;;;;;4.82;3.83;;;;;;;;;;5036767;28;20052;-68
2023/07/16 11:15:03;;;;;;;9.45;4.85;;;;;;;;;;5040127;28;20072;-68
2023/07/16 11:17:29;;;;;;;4.15;3.67;;;;;;;;;;5034902;28;20383;-68
2023/07/16 11:19:56;;;;;;;6.00;3.70;;;;;;;;;;5041090;28;20045;-69
2023/07/16 11:22:26;;;;;;;5.70;3.85;;;;;;;;;;5038867;28;20072;-69
2023/07/16 11:24:52;;;;;;;4.80;3.67;;;;;;;;;;5039730;28;20106;-69
2023/07/16 11:27:18;;;;;;;8.43;4.53;;;;;;;;;;5042728;28;20041;-68
2023/07/16 11:29:52;;;;;;;5.88;3.53;;;;;;;;;;5043072;28;20118;-68
2023/07/16 11:32:27;;;;;;;6.63;4.50;;;;;;;;;;5037213;28;20583;-68
2023/07/16 11:34:54;;;;;;;6.40;3.72;;;;;;;;;;5043424;28;20053;-69
2023/07/16 11:37:20;;;;;;;5.10;3.58;;;;;;;;;;5043267;28;20057;-69
2023/07/16 11:39:48;;;;;;;7.60;3.72;;;;;;;;;;5044652;28;20390;-69
2023/07/16 11:42:14;;;;;;;4.78;3.65;;;;;;;;;;5039692;28;20044;-69
2023/07/16 11:44:40;;;;;;;5.50;3.47;;;;;;;;;;5033652;28;20254;-69
2023/07/16 11:47:06;;;;;;;6.28;3.60;;;;;;;;;;5032906;28;20041;-69
2023/07/16 11:49:32;;;;;;;4.40;3.17;;;;;;;;;;5040656;28;20037;-68
2023/07/16 11:51:59;;;;;;;4.57;3.13;;;;;;;;;;5046851;28;20053;-69
2023/07/16 11:54:25;;;;;;;5.82;3.45;;;;;;;;;;5040692;28;20551;-68
2023/07/16 11:56:51;;;;;;;4.90;3.30;;;;;;;;;;5046552;28;20458;-69
2023/07/16 11:59:20;;;;;;;4.95;3.30;;;;;;;;;;5041421;28;20051;-69
2023/07/16 12:01:47;;;;;;;5.47;3.10;;;;;;;;;;5034728;28;20076;-69
2023/07/16 12:04:13;;;;;;;4.07;3.00;;;;;;;;;;5038027;28;20123;-69
2023/07/16 12:06:38;;;;;;;6.47;3.50;;;;;;;;;;5038839;28;20148;-69
2023/07/16 12:09:04;;;;;;;6.22;3.72;;;;;;;;;;5042074;28;20067;-69
2023/07/16 12:11:31;;;;;;;7.75;4.60;;;;;;;;;;5031800;28;20061;-69
2023/07/16 12:13:57;;;;;;;10.52;4.20;;;;;;;;;;5044198;28;20048;-69
2023/07/16 12:16:23;;;;;;;4.25;3.75;;;;;;;;;;5036433;28;20111;-69
2023/07/16 12:18:49;;;;;;;8.43;4.07;;;;;;;;;;5036451;28;20041;-69
2023/07/16 12:21:15;;;;;;;6.28;3.72;;;;;;;;;;5033969;28;20048;-68
2023/07/16 12:23:41;;;;;;;5.55;3.80;;;;;;;;;;5039975;28;20128;-70
2023/07/16 12:26:08;;;;;;;4.63;3.72;;;;;;;;;;5041438;28;20033;-69
2023/07/16 12:28:34;;;;;;;7.90;4.47;;;;;;;;;;5044392;28;20048;-60
2023/07/16 12:31:00;;;;;;;5.07;3.80;;;;;;;;;;5044493;28;20183;-67
2023/07/16 12:33:26;;;;;;;6.18;4.30;;;;;;;;;;5042183;28;20041;-68
2023/07/16 12:35:52;;;;;;;7.78;3.90;;;;;;;;;;5027247;28;20060;-68
2023/07/16 12:38:18;;;;;;;7.70;3.35;;;;;;;;;;5025392;28;20584;-68
2023/07/16 12:40:46;;;;;;;6.15;3.50;;;;;;;;;;5032090;28;20041;-68
2023/07/16 12:43:12;;;;;;;5.63;3.53;;;;;;;;;;5044795;28;20033;-68
2023/07/16 12:45:38;;;;;;;7.55;3.80;;;;;;;;;;5045600;28;20045;-68
2023/07/16 12:48:04;;;;;;;5.97;3.35;;;;;;;;;;5045652;28;20409;-68
2023/07/16 12:50:30;;;;;;;9.15;3.95;;;;;;;;;;5044891;28;20497;-68
2023/07/16 12:52:56;;;;;;;7.28;3.67;;;;;;;;;;5045394;28;20053;-68
2023/07/16 12:55:23;;;;;;;9.43;3.60;;;;;;;;;;5044845;28;20036;-68
2023/07/16 12:57:49;;;;;;;8.57;4.32;;;;;;;;;;5033250;28;20119;-68
2023/07/16 13:00:15;;;;;;;7.25;4.13;;;;;;;;;;5025110;28;20049;-68
2023/07/16 13:02:41;;;;;;;5.22;3.15;;;;;;;;;;5025432;28;20481;-68
2023/07/16 13:05:07;;;;;;;7.43;3.92;;;;;;;;;;5025240;28;20037;-68
2023/07/16 13:07:34;;;;;;;6.45;3.80;;;;;;;;;;5030614;28;20057;-68
2023/07/16 13:10:00;;;;;;;9.50;3.80;;;;;;;;;;5025332;28;20041;-67
2023/07/16 13:12:26;;;;;;;8.57;3.95;;;;;;;;;;5033095;28;20061;-67
2023/07/16 13:14:52;;;;;;;10.00;3.47;;;;;;;;;;5040236;28;20525;-67
2023/07/16 13:17:19;;;;;;;8.43;3.80;;;;;;;;;;5036910;28;20032;-67
2023/07/16 13:19:45;;;;;;;6.15;3.42;;;;;;;;;;5040407;28;20110;-67
2023/07/16 13:22:11;;;;;;;5.30;2.90;;;;;;;;;;5044463;28;20042;-67
2023/07/16 13:24:37;;;;;;;10.25;3.10;;;;;;;;;;5037542;28;20087;-67
2023/07/16 13:27:04;;;;;;;6.75;2.90;;;;;;;;;;5038157;28;20045;-67
2023/07/16 13:29:30;;;;;;;4.75;2.30;;;;;;;;;;5038610;28;20083;-67
2023/07/16 13:31:56;;;;;;;11.05;3.17;;;;;;;;;;5032330;28;20084;-67
2023/07/16 13:34:22;;;;;;;7.35;3.10;;;;;;;;;;5041926;28;20437;-66
2023/07/16 13:36:48;;;;;;;6.35;2.30;;;;;;;;;;5041103;28;20127;-66
2023/07/16 13:39:14;;;;;;;6.65;2.20;;;;;;;;;;5043779;28;20116;-66
2023/07/16 13:41:40;;;;;;;7.28;2.00;;;;;;;;;;5045548;28;20037;-66
2023/07/16 13:44:06;;;;;;;8.55;2.35;;;;;;;;;;5048107;28;20587;-67
2023/07/16 13:46:32;;;;;;;6.15;2.38;;;;;;;;;;5036518;28;20091;-67
2023/07/16 13:49:00;;;;;;;6.18;2.70;;;;;;;;;;5043491;28;20156;-67
2023/07/16 13:51:26;;;;;;;7.82;2.25;;;;;;;;;;5044815;28;20045;-67
2023/07/16 13:53:52;;;;;;;12.30;2.55;;;;;;;;;;5039783;28;20044;-67
2023/07/16 13:56:18;;;;;;;7.88;2.38;;;;;;;;;;5041408;28;20041;-67
2023/07/16 13:58:44;;;;;;;7.07;2.13;;;;;;;;;;5043408;28;20290;-67
2023/07/16 14:01:10;;;;;;;4.70;1.88;;;;;;;;;;5042852;28;20406;-67
2023/07/16 14:03:36;;;;;;;10.27;2.30;;;;;;;;;;5040483;28;20068;-66
2023/07/16 14:06:02;;;;;;;7.15;2.20;;;;;;;;;;5039018;28;20123;-67
2023/07/16 14:08:29;;;;;;;7.15;1.80;;;;;;;;;;5044452;28;20053;-67
2023/07/16 14:10:55;;;;;;;4.28;1.80;;;;;;;;;;5047778;28;20095;-67
2023/07/16 14:13:21;;;;;;;7.10;1.98;;;;;;;;;;5046474;28;20695;-66
2023/07/16 14:15:47;;;;;;;6.63;2.05;;;;;;;;;;5041088;28;20036;-66
2023/07/16 14:18:13;;;;;;;4.30;1.70;;;;;;;;;;5041744;28;20049;-67
2023/07/16 14:20:39;;;;;;;3.40;1.50;;;;;;;;;;5039187;28;20572;-67
2023/07/16 14:23:05;;;;;;;6.38;2.03;;;;;;;;;;5044746;28;20049;-67
2023/07/16 14:25:32;;;;;;;9.32;2.28;;;;;;;;;;5042018;28;20037;-67
2023/07/16 14:27:58;;;;;;;5.57;1.85;;;;;;;;;;5042617;28;20103;-67
2023/07/16 14:30:24;;;;;;;6.85;1.95;;;;;;;;;;5043838;28;20097;-67
2023/07/16 14:32:50;;;;;;;4.82;1.70;;;;;;;;;;5038412;28;20053;-67
2023/07/16 14:35:16;;;;;;;7.13;1.88;;;;;;;;;;5042677;28;20048;-67
2023/07/16 14:37:42;;;;;;;6.28;2.10;;;;;;;;;;5038371;28;20506;-67
2023/07/16 14:40:08;;;;;;;5.93;2.05;;;;;;;;;;5036169;28;20123;-67